sensor_id;sensor_type;location;lat;lon;timestamp;P1;durP1;ratioP1;P2;durP2;ratioP2
52468;SDS011;38381;53.688;10.776;2023-05-06T00:02:45;8.50;;;4.15;;
52468;SDS011;38381;53.688;10.776;2023-05-06T00:07:46;6.13;;;4.15;;
52468;SDS011;38381;53.688;10.776;2023-05-06T00:12:46;5.43;;;4.15;;
52468;SDS011;38381;53.688;10.776;2023-05-06T00:17:47;5.43;;;3.53;;
52468;SDS011;38381;53.688;10.776;2023-05-06T00:22:47;8.70;;;4.38;;
52468;SDS011;38381;53.688;10.776;2023-05-06T00:27:47;5.57;;;3.50;;
52468;SDS011;38381;53.688;10.776;2023-05-06T00:32:48;5.88;;;4.15;;
52468;SDS011;38381;53.688;10.776;2023-05-06T00:37:56;4.27;;;3.80;;
52468;SDS011;38381;53.688;10.776;2023-05-06T00:42:57;6.13;;;3.90;;
52468;SDS011;38381;53.688;10.776;2023-05-06T00:47:57;5.40;;;4.03;;
52468;SDS011;38381;53.688;10.776;2023-05-06T00:52:58;6.85;;;4.75;;
52468;SDS011;38381;53.688;10.776;2023-05-06T00:58:03;4.32;;;3.83;;
52468;SDS011;38381;53.688;10.776;2023-05-06T01:03:03;4.88;;;3.55;;
52468;SDS011;38381;53.688;10.776;2023-05-06T01:13:28;7.63;;;4.30;;
52468;SDS011;38381;53.688;10.776;2023-05-06T01:18:33;5.35;;;4.00;;
52468;SDS011;38381;53.688;10.776;2023-05-06T01:28:55;5.82;;;3.50;;
52468;SDS011;38381;53.688;10.776;2023-05-06T01:39:17;4.20;;;3.38;;
52468;SDS011;38381;53.688;10.776;2023-05-06T01:44:21;5.95;;;4.00;;
52468;SDS011;38381;53.688;10.776;2023-05-06T01:49:23;8.03;;;4.03;;
52468;SDS011;38381;53.688;10.776;2023-05-06T01:54:25;4.45;;;3.53;;
52468;SDS011;38381;53.688;10.776;2023-05-06T01:59:25;5.68;;;4.78;;
52468;SDS011;38381;53.688;10.776;2023-05-06T02:04:26;4.95;;;3.90;;
52468;SDS011;38381;53.688;10.776;2023-05-06T02:09:26;4.70;;;4.10;;
52468;SDS011;38381;53.688;10.776;2023-05-06T02:14:27;5.60;;;4.78;;
52468;SDS011;38381;53.688;10.776;2023-05-06T02:19:28;5.30;;;4.15;;
52468;SDS011;38381;53.688;10.776;2023-05-06T02:24:28;4.13;;;3.72;;
52468;SDS011;38381;53.688;10.776;2023-05-06T02:29:28;4.70;;;3.97;;
52468;SDS011;38381;53.688;10.776;2023-05-06T02:34:29;5.72;;;3.75;;
52468;SDS011;38381;53.688;10.776;2023-05-06T02:39:29;5.45;;;4.13;;
52468;SDS011;38381;53.688;10.776;2023-05-06T02:44:30;5.97;;;4.80;;
52468;SDS011;38381;53.688;10.776;2023-05-06T02:49:30;5.78;;;4.82;;
52468;SDS011;38381;53.688;10.776;2023-05-06T02:54:30;5.65;;;4.28;;
52468;SDS011;38381;53.688;10.776;2023-05-06T02:59:31;6.53;;;4.47;;
52468;SDS011;38381;53.688;10.776;2023-05-06T03:04:31;5.03;;;4.53;;
52468;SDS011;38381;53.688;10.776;2023-05-06T03:09:32;5.88;;;4.75;;
52468;SDS011;38381;53.688;10.776;2023-05-06T03:14:32;5.72;;;4.28;;
52468;SDS011;38381;53.688;10.776;2023-05-06T03:19:33;6.70;;;4.73;;
52468;SDS011;38381;53.688;10.776;2023-05-06T03:24:34;4.72;;;4.22;;
52468;SDS011;38381;53.688;10.776;2023-05-06T03:29:34;5.88;;;4.90;;
52468;SDS011;38381;53.688;10.776;2023-05-06T03:34:34;4.60;;;4.15;;
52468;SDS011;38381;53.688;10.776;2023-05-06T03:39:35;4.43;;;4.03;;
52468;SDS011;38381;53.688;10.776;2023-05-06T03:44:35;8.27;;;4.85;;
52468;SDS011;38381;53.688;10.776;2023-05-06T03:49:36;5.10;;;4.60;;
52468;SDS011;38381;53.688;10.776;2023-05-06T03:54:36;5.63;;;4.17;;
52468;SDS011;38381;53.688;10.776;2023-05-06T03:59:36;6.73;;;5.30;;
52468;SDS011;38381;53.688;10.776;2023-05-06T04:04:37;5.50;;;4.40;;
52468;SDS011;38381;53.688;10.776;2023-05-06T04:09:37;6.53;;;4.60;;
52468;SDS011;38381;53.688;10.776;2023-05-06T04:14:38;9.50;;;4.75;;
52468;SDS011;38381;53.688;10.776;2023-05-06T04:19:38;7.38;;;5.68;;
52468;SDS011;38381;53.688;10.776;2023-05-06T04:24:39;7.75;;;4.45;;
52468;SDS011;38381;53.688;10.776;2023-05-06T04:29:40;5.13;;;4.38;;
52468;SDS011;38381;53.688;10.776;2023-05-06T04:34:41;5.63;;;5.13;;
52468;SDS011;38381;53.688;10.776;2023-05-06T04:39:42;5.97;;;5.20;;
52468;SDS011;38381;53.688;10.776;2023-05-06T04:44:46;4.95;;;4.43;;
52468;SDS011;38381;53.688;10.776;2023-05-06T04:49:46;6.00;;;4.75;;
52468;SDS011;38381;53.688;10.776;2023-05-06T04:54:46;6.00;;;4.60;;
52468;SDS011;38381;53.688;10.776;2023-05-06T04:59:47;6.13;;;5.27;;
52468;SDS011;38381;53.688;10.776;2023-05-06T05:04:47;8.95;;;6.78;;
52468;SDS011;38381;53.688;10.776;2023-05-06T05:09:48;5.80;;;5.10;;
52468;SDS011;38381;53.688;10.776;2023-05-06T05:14:48;7.73;;;5.60;;
52468;SDS011;38381;53.688;10.776;2023-05-06T05:19:48;7.57;;;5.55;;
52468;SDS011;38381;53.688;10.776;2023-05-06T05:24:49;5.80;;;5.13;;
52468;SDS011;38381;53.688;10.776;2023-05-06T05:29:49;7.45;;;4.70;;
52468;SDS011;38381;53.688;10.776;2023-05-06T05:34:50;6.38;;;5.78;;
52468;SDS011;38381;53.688;10.776;2023-05-06T05:39:50;7.50;;;5.18;;
52468;SDS011;38381;53.688;10.776;2023-05-06T05:44:51;8.50;;;5.45;;
52468;SDS011;38381;53.688;10.776;2023-05-06T05:49:51;7.25;;;5.53;;
52468;SDS011;38381;53.688;10.776;2023-05-06T05:54:52;4.90;;;4.32;;
52468;SDS011;38381;53.688;10.776;2023-05-06T05:59:52;5.03;;;4.55;;
52468;SDS011;38381;53.688;10.776;2023-05-06T06:04:53;6.15;;;5.57;;
52468;SDS011;38381;53.688;10.776;2023-05-06T06:09:53;5.60;;;4.70;;
52468;SDS011;38381;53.688;10.776;2023-05-06T06:14:53;6.53;;;5.90;;
52468;SDS011;38381;53.688;10.776;2023-05-06T06:19:54;5.13;;;4.23;;
52468;SDS011;38381;53.688;10.776;2023-05-06T06:24:56;6.57;;;5.15;;
52468;SDS011;38381;53.688;10.776;2023-05-06T06:29:56;4.80;;;4.27;;
52468;SDS011;38381;53.688;10.776;2023-05-06T06:34:57;4.20;;;3.72;;
52468;SDS011;38381;53.688;10.776;2023-05-06T06:39:57;5.22;;;4.05;;
52468;SDS011;38381;53.688;10.776;2023-05-06T06:44:57;4.57;;;3.70;;
52468;SDS011;38381;53.688;10.776;2023-05-06T06:49:58;5.20;;;4.05;;
52468;SDS011;38381;53.688;10.776;2023-05-06T06:54:58;4.50;;;3.63;;
52468;SDS011;38381;53.688;10.776;2023-05-06T06:59:59;4.57;;;4.15;;
52468;SDS011;38381;53.688;10.776;2023-05-06T07:04:59;5.03;;;4.07;;
52468;SDS011;38381;53.688;10.776;2023-05-06T07:10:00;5.05;;;4.55;;
52468;SDS011;38381;53.688;10.776;2023-05-06T07:15:00;4.45;;;4.05;;
52468;SDS011;38381;53.688;10.776;2023-05-06T07:20:05;5.38;;;4.75;;
52468;SDS011;38381;53.688;10.776;2023-05-06T07:25:06;5.65;;;4.57;;
52468;SDS011;38381;53.688;10.776;2023-05-06T07:30:07;5.68;;;4.30;;
52468;SDS011;38381;53.688;10.776;2023-05-06T07:35:08;4.97;;;4.35;;
52468;SDS011;38381;53.688;10.776;2023-05-06T07:40:08;7.15;;;4.78;;
52468;SDS011;38381;53.688;10.776;2023-05-06T07:45:09;6.78;;;6.07;;
52468;SDS011;38381;53.688;10.776;2023-05-06T07:50:10;5.20;;;4.65;;
52468;SDS011;38381;53.688;10.776;2023-05-06T07:55:10;4.95;;;4.28;;
52468;SDS011;38381;53.688;10.776;2023-05-06T08:00:11;5.57;;;4.80;;
52468;SDS011;38381;53.688;10.776;2023-05-06T08:05:12;5.80;;;5.20;;
52468;SDS011;38381;53.688;10.776;2023-05-06T08:10:13;4.93;;;4.53;;
52468;SDS011;38381;53.688;10.776;2023-05-06T08:15:14;5.88;;;5.28;;
52468;SDS011;38381;53.688;10.776;2023-05-06T08:20:15;5.13;;;4.55;;
52468;SDS011;38381;53.688;10.776;2023-05-06T08:25:15;6.60;;;4.50;;
52468;SDS011;38381;53.688;10.776;2023-05-06T08:30:16;7.10;;;5.13;;
52468;SDS011;38381;53.688;10.776;2023-05-06T08:35:16;5.88;;;4.85;;
52468;SDS011;38381;53.688;10.776;2023-05-06T08:40:18;6.47;;;5.38;;
52468;SDS011;38381;53.688;10.776;2023-05-06T08:45:19;5.55;;;4.68;;
52468;SDS011;38381;53.688;10.776;2023-05-06T08:50:19;8.48;;;7.43;;
52468;SDS011;38381;53.688;10.776;2023-05-06T08:55:20;6.53;;;4.70;;
52468;SDS011;38381;53.688;10.776;2023-05-06T09:00:23;7.22;;;4.80;;
52468;SDS011;38381;53.688;10.776;2023-05-06T09:05:23;6.95;;;6.22;;
52468;SDS011;38381;53.688;10.776;2023-05-06T09:10:29;6.57;;;5.97;;
52468;SDS011;38381;53.688;10.776;2023-05-06T09:15:43;5.80;;;5.20;;
52468;SDS011;38381;53.688;10.776;2023-05-06T09:20:48;6.45;;;5.80;;
52468;SDS011;38381;53.688;10.776;2023-05-06T09:25:49;8.15;;;5.75;;
52468;SDS011;38381;53.688;10.776;2023-05-06T09:30:50;5.25;;;4.75;;
52468;SDS011;38381;53.688;10.776;2023-05-06T09:35:51;6.97;;;6.38;;
52468;SDS011;38381;53.688;10.776;2023-05-06T09:40:51;15.40;;;6.87;;
52468;SDS011;38381;53.688;10.776;2023-05-06T09:45:51;9.10;;;5.95;;
52468;SDS011;38381;53.688;10.776;2023-05-06T09:50:52;6.22;;;5.63;;
52468;SDS011;38381;53.688;10.776;2023-05-06T09:55:53;8.25;;;6.35;;
52468;SDS011;38381;53.688;10.776;2023-05-06T10:00:56;6.97;;;5.63;;
52468;SDS011;38381;53.688;10.776;2023-05-06T10:05:59;6.88;;;6.18;;
52468;SDS011;38381;53.688;10.776;2023-05-06T10:11:01;7.57;;;6.82;;
52468;SDS011;38381;53.688;10.776;2023-05-06T10:16:01;8.00;;;6.07;;
52468;SDS011;38381;53.688;10.776;2023-05-06T10:21:02;8.88;;;6.63;;
52468;SDS011;38381;53.688;10.776;2023-05-06T10:26:09;6.70;;;5.75;;
52468;SDS011;38381;53.688;10.776;2023-05-06T10:31:11;7.40;;;6.68;;
52468;SDS011;38381;53.688;10.776;2023-05-06T10:36:17;7.00;;;6.43;;
52468;SDS011;38381;53.688;10.776;2023-05-06T10:41:22;11.32;;;7.57;;
52468;SDS011;38381;53.688;10.776;2023-05-06T10:46:27;9.95;;;7.38;;
52468;SDS011;38381;53.688;10.776;2023-05-06T10:51:28;9.10;;;7.13;;
52468;SDS011;38381;53.688;10.776;2023-05-06T10:56:31;8.70;;;7.13;;
52468;SDS011;38381;53.688;10.776;2023-05-06T11:01:42;7.47;;;6.50;;
52468;SDS011;38381;53.688;10.776;2023-05-06T11:06:44;7.18;;;6.47;;
52468;SDS011;38381;53.688;10.776;2023-05-06T11:11:49;7.65;;;6.38;;
52468;SDS011;38381;53.688;10.776;2023-05-06T11:22:04;7.40;;;6.47;;
52468;SDS011;38381;53.688;10.776;2023-05-06T11:27:05;7.38;;;6.60;;
52468;SDS011;38381;53.688;10.776;2023-05-06T11:32:16;7.30;;;6.55;;
52468;SDS011;38381;53.688;10.776;2023-05-06T11:37:25;6.85;;;6.25;;
52468;SDS011;38381;53.688;10.776;2023-05-06T11:42:26;5.55;;;5.05;;
52468;SDS011;38381;53.688;10.776;2023-05-06T11:47:28;6.93;;;6.23;;
52468;SDS011;38381;53.688;10.776;2023-05-06T11:52:28;8.10;;;6.55;;
52468;SDS011;38381;53.688;10.776;2023-05-06T11:57:29;6.72;;;6.03;;
52468;SDS011;38381;53.688;10.776;2023-05-06T12:02:30;7.80;;;6.72;;
52468;SDS011;38381;53.688;10.776;2023-05-06T12:07:30;12.20;;;8.77;;
52468;SDS011;38381;53.688;10.776;2023-05-06T12:12:31;9.75;;;7.55;;
52468;SDS011;38381;53.688;10.776;2023-05-06T12:17:32;8.18;;;7.38;;
52468;SDS011;38381;53.688;10.776;2023-05-06T12:22:32;8.07;;;7.32;;
52468;SDS011;38381;53.688;10.776;2023-05-06T12:27:34;10.37;;;7.70;;
52468;SDS011;38381;53.688;10.776;2023-05-06T12:32:35;10.10;;;9.10;;
52468;SDS011;38381;53.688;10.776;2023-05-06T12:37:36;9.50;;;8.32;;
52468;SDS011;38381;53.688;10.776;2023-05-06T12:42:36;9.15;;;7.97;;
52468;SDS011;38381;53.688;10.776;2023-05-06T12:47:37;8.57;;;7.68;;
52468;SDS011;38381;53.688;10.776;2023-05-06T12:52:41;9.70;;;8.70;;
52468;SDS011;38381;53.688;10.776;2023-05-06T12:57:43;9.70;;;8.70;;
52468;SDS011;38381;53.688;10.776;2023-05-06T13:02:43;9.73;;;8.73;;
52468;SDS011;38381;53.688;10.776;2023-05-06T13:07:44;9.50;;;8.52;;
52468;SDS011;38381;53.688;10.776;2023-05-06T13:12:45;9.07;;;8.25;;
52468;SDS011;38381;53.688;10.776;2023-05-06T13:17:45;11.40;;;8.63;;
52468;SDS011;38381;53.688;10.776;2023-05-06T13:22:47;9.95;;;7.85;;
52468;SDS011;38381;53.688;10.776;2023-05-06T13:27:48;11.48;;;8.88;;
52468;SDS011;38381;53.688;10.776;2023-05-06T13:32:49;11.18;;;9.98;;
52468;SDS011;38381;53.688;10.776;2023-05-06T13:37:49;11.35;;;8.68;;
52468;SDS011;38381;53.688;10.776;2023-05-06T13:42:50;9.38;;;8.32;;
52468;SDS011;38381;53.688;10.776;2023-05-06T13:47:50;10.50;;;8.57;;
52468;SDS011;38381;53.688;10.776;2023-05-06T13:52:50;9.98;;;8.98;;
52468;SDS011;38381;53.688;10.776;2023-05-06T13:57:51;10.82;;;9.73;;
52468;SDS011;38381;53.688;10.776;2023-05-06T14:02:51;11.00;;;8.50;;
52468;SDS011;38381;53.688;10.776;2023-05-06T14:07:51;11.00;;;8.03;;
52468;SDS011;38381;53.688;10.776;2023-05-06T14:12:52;8.75;;;7.88;;
52468;SDS011;38381;53.688;10.776;2023-05-06T14:17:52;9.13;;;8.23;;
52468;SDS011;38381;53.688;10.776;2023-05-06T14:22:53;9.85;;;8.45;;
52468;SDS011;38381;53.688;10.776;2023-05-06T14:27:53;9.82;;;8.73;;
52468;SDS011;38381;53.688;10.776;2023-05-06T14:32:54;10.77;;;9.68;;
52468;SDS011;38381;53.688;10.776;2023-05-06T14:37:54;9.07;;;8.15;;
52468;SDS011;38381;53.688;10.776;2023-05-06T14:42:55;9.27;;;8.40;;
52468;SDS011;38381;53.688;10.776;2023-05-06T14:47:55;12.35;;;8.80;;
52468;SDS011;38381;53.688;10.776;2023-05-06T14:52:56;10.13;;;9.13;;
52468;SDS011;38381;53.688;10.776;2023-05-06T14:57:56;10.45;;;9.35;;
52468;SDS011;38381;53.688;10.776;2023-05-06T15:02:56;9.45;;;8.55;;
52468;SDS011;38381;53.688;10.776;2023-05-06T15:07:58;11.05;;;8.43;;
52468;SDS011;38381;53.688;10.776;2023-05-06T15:12:58;9.33;;;8.07;;
52468;SDS011;38381;53.688;10.776;2023-05-06T15:17:59;10.18;;;9.10;;
52468;SDS011;38381;53.688;10.776;2023-05-06T15:22:59;11.50;;;8.45;;
52468;SDS011;38381;53.688;10.776;2023-05-06T15:27:59;11.15;;;8.80;;
52468;SDS011;38381;53.688;10.776;2023-05-06T15:33:00;10.10;;;8.68;;
52468;SDS011;38381;53.688;10.776;2023-05-06T15:38:01;10.07;;;9.02;;
52468;SDS011;38381;53.688;10.776;2023-05-06T15:43:03;9.48;;;8.50;;
52468;SDS011;38381;53.688;10.776;2023-05-06T15:48:04;10.48;;;9.50;;
52468;SDS011;38381;53.688;10.776;2023-05-06T15:53:04;9.40;;;8.45;;
52468;SDS011;38381;53.688;10.776;2023-05-06T15:58:05;10.20;;;9.23;;
52468;SDS011;38381;53.688;10.776;2023-05-06T16:03:05;10.43;;;9.23;;
52468;SDS011;38381;53.688;10.776;2023-05-06T16:08:06;11.13;;;8.38;;
52468;SDS011;38381;53.688;10.776;2023-05-06T16:13:06;10.77;;;9.65;;
52468;SDS011;38381;53.688;10.776;2023-05-06T16:18:06;9.97;;;8.97;;
52468;SDS011;38381;53.688;10.776;2023-05-06T16:23:07;8.57;;;7.78;;
52468;SDS011;38381;53.688;10.776;2023-05-06T16:28:07;10.38;;;9.25;;
52468;SDS011;38381;53.688;10.776;2023-05-06T16:33:08;11.00;;;8.63;;
52468;SDS011;38381;53.688;10.776;2023-05-06T16:38:09;9.65;;;8.65;;
52468;SDS011;38381;53.688;10.776;2023-05-06T16:43:09;12.48;;;11.18;;
52468;SDS011;38381;53.688;10.776;2023-05-06T16:48:14;9.45;;;8.60;;
52468;SDS011;38381;53.688;10.776;2023-05-06T16:53:14;12.75;;;11.43;;
52468;SDS011;38381;53.688;10.776;2023-05-06T16:58:16;11.77;;;9.52;;
52468;SDS011;38381;53.688;10.776;2023-05-06T17:03:16;11.10;;;9.77;;
52468;SDS011;38381;53.688;10.776;2023-05-06T17:08:17;9.57;;;8.60;;
52468;SDS011;38381;53.688;10.776;2023-05-06T17:13:17;10.20;;;9.20;;
52468;SDS011;38381;53.688;10.776;2023-05-06T17:18:18;12.15;;;11.02;;
52468;SDS011;38381;53.688;10.776;2023-05-06T17:23:18;13.50;;;10.87;;
52468;SDS011;38381;53.688;10.776;2023-05-06T17:28:18;11.87;;;10.73;;
52468;SDS011;38381;53.688;10.776;2023-05-06T17:33:19;11.68;;;10.57;;
52468;SDS011;38381;53.688;10.776;2023-05-06T17:38:21;11.60;;;10.35;;
52468;SDS011;38381;53.688;10.776;2023-05-06T17:43:21;9.52;;;8.30;;
52468;SDS011;38381;53.688;10.776;2023-05-06T17:48:21;11.18;;;10.07;;
52468;SDS011;38381;53.688;10.776;2023-05-06T17:53:22;9.13;;;7.63;;
52468;SDS011;38381;53.688;10.776;2023-05-06T17:58:22;10.95;;;9.07;;
52468;SDS011;38381;53.688;10.776;2023-05-06T18:03:23;11.00;;;8.32;;
52468;SDS011;38381;53.688;10.776;2023-05-06T18:08:23;9.85;;;8.85;;
52468;SDS011;38381;53.688;10.776;2023-05-06T18:13:24;14.23;;;12.25;;
52468;SDS011;38381;53.688;10.776;2023-05-06T18:18:24;11.43;;;10.30;;
52468;SDS011;38381;53.688;10.776;2023-05-06T18:23:25;9.13;;;8.23;;
52468;SDS011;38381;53.688;10.776;2023-05-06T18:28:25;10.88;;;9.77;;
52468;SDS011;38381;53.688;10.776;2023-05-06T18:33:26;10.80;;;9.70;;
52468;SDS011;38381;53.688;10.776;2023-05-06T18:38:26;12.48;;;11.10;;
52468;SDS011;38381;53.688;10.776;2023-05-06T18:43:27;13.50;;;12.30;;
52468;SDS011;38381;53.688;10.776;2023-05-06T18:48:29;11.63;;;9.80;;
52468;SDS011;38381;53.688;10.776;2023-05-06T18:53:31;11.40;;;10.27;;
52468;SDS011;38381;53.688;10.776;2023-05-06T18:58:33;9.40;;;8.50;;
52468;SDS011;38381;53.688;10.776;2023-05-06T19:03:34;10.90;;;9.85;;
52468;SDS011;38381;53.688;10.776;2023-05-06T19:08:36;11.67;;;9.00;;
52468;SDS011;38381;53.688;10.776;2023-05-06T19:13:37;14.07;;;9.40;;
52468;SDS011;38381;53.688;10.776;2023-05-06T19:18:38;12.67;;;10.40;;
52468;SDS011;38381;53.688;10.776;2023-05-06T19:23:38;9.75;;;8.77;;
52468;SDS011;38381;53.688;10.776;2023-05-06T19:28:39;11.57;;;10.07;;
52468;SDS011;38381;53.688;10.776;2023-05-06T19:33:41;11.77;;;10.20;;
52468;SDS011;38381;53.688;10.776;2023-05-06T19:38:41;9.85;;;8.88;;
52468;SDS011;38381;53.688;10.776;2023-05-06T19:43:42;11.35;;;10.32;;
52468;SDS011;38381;53.688;10.776;2023-05-06T19:48:46;12.30;;;10.50;;
52468;SDS011;38381;53.688;10.776;2023-05-06T19:53:49;12.93;;;11.73;;
52468;SDS011;38381;53.688;10.776;2023-05-06T19:58:49;9.83;;;8.80;;
52468;SDS011;38381;53.688;10.776;2023-05-06T20:03:52;9.88;;;8.85;;
52468;SDS011;38381;53.688;10.776;2023-05-06T20:08:54;9.93;;;8.98;;
52468;SDS011;38381;53.688;10.776;2023-05-06T20:13:54;10.88;;;9.38;;
52468;SDS011;38381;53.688;10.776;2023-05-06T20:18:54;13.52;;;10.95;;
52468;SDS011;38381;53.688;10.776;2023-05-06T20:23:55;9.60;;;8.55;;
52468;SDS011;38381;53.688;10.776;2023-05-06T20:28:56;9.55;;;8.55;;
52468;SDS011;38381;53.688;10.776;2023-05-06T20:33:57;9.43;;;8.52;;
52468;SDS011;38381;53.688;10.776;2023-05-06T20:38:57;9.75;;;7.57;;
52468;SDS011;38381;53.688;10.776;2023-05-06T20:43:59;9.07;;;8.15;;
52468;SDS011;38381;53.688;10.776;2023-05-06T20:49:00;9.27;;;8.38;;
52468;SDS011;38381;53.688;10.776;2023-05-06T20:54:00;8.75;;;6.72;;
52468;SDS011;38381;53.688;10.776;2023-05-06T20:59:01;9.00;;;8.10;;
52468;SDS011;38381;53.688;10.776;2023-05-06T21:04:01;8.90;;;7.55;;
52468;SDS011;38381;53.688;10.776;2023-05-06T21:09:03;9.57;;;8.63;;
52468;SDS011;38381;53.688;10.776;2023-05-06T21:14:04;8.77;;;7.97;;
52468;SDS011;38381;53.688;10.776;2023-05-06T21:19:04;7.77;;;6.73;;
52468;SDS011;38381;53.688;10.776;2023-05-06T21:24:05;9.50;;;8.50;;
52468;SDS011;38381;53.688;10.776;2023-05-06T21:29:05;10.45;;;8.25;;
52468;SDS011;38381;53.688;10.776;2023-05-06T21:34:05;8.32;;;7.53;;
52468;SDS011;38381;53.688;10.776;2023-05-06T21:39:08;9.30;;;8.38;;
52468;SDS011;38381;53.688;10.776;2023-05-06T21:44:11;9.90;;;8.50;;
52468;SDS011;38381;53.688;10.776;2023-05-06T21:49:11;9.35;;;8.45;;
52468;SDS011;38381;53.688;10.776;2023-05-06T21:54:11;9.30;;;8.32;;
52468;SDS011;38381;53.688;10.776;2023-05-06T21:59:12;8.30;;;7.50;;
52468;SDS011;38381;53.688;10.776;2023-05-06T22:04:13;13.60;;;8.90;;
52468;SDS011;38381;53.688;10.776;2023-05-06T22:09:15;9.70;;;8.65;;
52468;SDS011;38381;53.688;10.776;2023-05-06T22:14:16;11.98;;;8.20;;
52468;SDS011;38381;53.688;10.776;2023-05-06T22:19:16;9.00;;;7.80;;
52468;SDS011;38381;53.688;10.776;2023-05-06T22:24:17;9.48;;;8.48;;
52468;SDS011;38381;53.688;10.776;2023-05-06T22:29:17;8.32;;;6.78;;
52468;SDS011;38381;53.688;10.776;2023-05-06T22:34:18;8.82;;;7.93;;
52468;SDS011;38381;53.688;10.776;2023-05-06T22:39:18;6.85;;;6.13;;
52468;SDS011;38381;53.688;10.776;2023-05-06T22:44:18;7.63;;;6.88;;
52468;SDS011;38381;53.688;10.776;2023-05-06T22:49:19;8.40;;;6.60;;
52468;SDS011;38381;53.688;10.776;2023-05-06T22:54:21;8.45;;;7.55;;
52468;SDS011;38381;53.688;10.776;2023-05-06T22:59:22;9.20;;;7.60;;
52468;SDS011;38381;53.688;10.776;2023-05-06T23:04:22;8.05;;;7.20;;
52468;SDS011;38381;53.688;10.776;2023-05-06T23:09:23;9.70;;;7.85;;
52468;SDS011;38381;53.688;10.776;2023-05-06T23:14:23;10.57;;;7.40;;
52468;SDS011;38381;53.688;10.776;2023-05-06T23:19:23;9.10;;;8.05;;
52468;SDS011;38381;53.688;10.776;2023-05-06T23:24:24;8.43;;;7.63;;
52468;SDS011;38381;53.688;10.776;2023-05-06T23:29:25;9.77;;;7.93;;
52468;SDS011;38381;53.688;10.776;2023-05-06T23:34:25;8.88;;;7.95;;
52468;SDS011;38381;53.688;10.776;2023-05-06T23:39:26;9.93;;;8.82;;
52468;SDS011;38381;53.688;10.776;2023-05-06T23:44:27;10.15;;;8.77;;
52468;SDS011;38381;53.688;10.776;2023-05-06T23:49:27;10.63;;;8.02;;
52468;SDS011;38381;53.688;10.776;2023-05-06T23:54:28;10.23;;;7.78;;
52468;SDS011;38381;53.688;10.776;2023-05-06T23:59:30;9.35;;;8.35;;
